sensor_id;sensor_type;location;lat;lon;timestamp;P1;durP1;ratioP1;P2;durP2;ratioP2
30697;SDS011;17448;47.200;10.902;2024-03-23T00:56:14;1.67;;;1.20;;
30697;SDS011;17448;47.200;10.902;2024-03-23T00:58:40;2.22;;;1.10;;
30697;SDS011;17448;47.200;10.902;2024-03-23T01:01:06;2.92;;;1.85;;
30697;SDS011;17448;47.200;10.902;2024-03-23T01:03:33;3.05;;;1.40;;
30697;SDS011;17448;47.200;10.902;2024-03-23T01:06:00;1.73;;;1.17;;
30697;SDS011;17448;47.200;10.902;2024-03-23T01:08:26;1.60;;;1.33;;
30697;SDS011;17448;47.200;10.902;2024-03-23T01:10:56;1.98;;;1.05;;
30697;SDS011;17448;47.200;10.902;2024-03-23T01:13:23;1.95;;;1.17;;
30697;SDS011;17448;47.200;10.902;2024-03-23T01:15:52;4.32;;;1.50;;
30697;SDS011;17448;47.200;10.902;2024-03-23T01:18:20;3.00;;;1.33;;
30697;SDS011;17448;47.200;10.902;2024-03-23T01:20:46;4.05;;;1.20;;
30697;SDS011;17448;47.200;10.902;2024-03-23T01:23:13;2.08;;;1.48;;
30697;SDS011;17448;47.200;10.902;2024-03-23T01:25:39;3.25;;;1.33;;
30697;SDS011;17448;47.200;10.902;2024-03-23T01:28:06;2.15;;;1.40;;
30697;SDS011;17448;47.200;10.902;2024-03-23T01:30:33;2.13;;;1.45;;
30697;SDS011;17448;47.200;10.902;2024-03-23T01:33:00;3.25;;;1.20;;
30697;SDS011;17448;47.200;10.902;2024-03-23T01:35:26;2.55;;;1.30;;
30697;SDS011;17448;47.200;10.902;2024-03-23T01:37:52;1.23;;;1.00;;
30697;SDS011;17448;47.200;10.902;2024-03-23T01:40:19;1.58;;;1.20;;
30697;SDS011;17448;47.200;10.902;2024-03-23T01:42:55;3.83;;;1.15;;
30697;SDS011;17448;47.200;10.902;2024-03-23T01:45:21;1.67;;;1.20;;
30697;SDS011;17448;47.200;10.902;2024-03-23T01:47:49;2.70;;;1.30;;
30697;SDS011;17448;47.200;10.902;2024-03-23T01:50:15;2.58;;;1.35;;
30697;SDS011;17448;47.200;10.902;2024-03-23T01:52:41;3.20;;;1.30;;
30697;SDS011;17448;47.200;10.902;2024-03-23T01:55:08;2.55;;;1.10;;
30697;SDS011;17448;47.200;10.902;2024-03-23T01:57:34;2.88;;;1.38;;
30697;SDS011;17448;47.200;10.902;2024-03-23T02:00:01;3.28;;;1.40;;
30697;SDS011;17448;47.200;10.902;2024-03-23T02:02:55;2.33;;;1.30;;
30697;SDS011;17448;47.200;10.902;2024-03-23T02:05:21;4.10;;;1.30;;
30697;SDS011;17448;47.200;10.902;2024-03-23T02:07:48;2.10;;;1.30;;
30697;SDS011;17448;47.200;10.902;2024-03-23T02:10:14;2.00;;;1.38;;
30697;SDS011;17448;47.200;10.902;2024-03-23T02:12:40;1.63;;;1.20;;
30697;SDS011;17448;47.200;10.902;2024-03-23T02:15:07;4.32;;;1.52;;
30697;SDS011;17448;47.200;10.902;2024-03-23T02:17:36;1.67;;;1.30;;
30697;SDS011;17448;47.200;10.902;2024-03-23T02:20:02;4.15;;;1.20;;
30697;SDS011;17448;47.200;10.902;2024-03-23T02:22:37;1.92;;;1.20;;
30697;SDS011;17448;47.200;10.902;2024-03-23T02:25:04;3.13;;;1.58;;
30697;SDS011;17448;47.200;10.902;2024-03-23T02:27:30;1.92;;;1.30;;
30697;SDS011;17448;47.200;10.902;2024-03-23T02:29:56;1.65;;;1.13;;
30697;SDS011;17448;47.200;10.902;2024-03-23T02:32:23;2.33;;;1.40;;
30697;SDS011;17448;47.200;10.902;2024-03-23T02:34:49;2.67;;;1.50;;
30697;SDS011;17448;47.200;10.902;2024-03-23T02:37:15;2.75;;;1.08;;
30697;SDS011;17448;47.200;10.902;2024-03-23T02:39:42;3.90;;;1.30;;
30697;SDS011;17448;47.200;10.902;2024-03-23T02:42:08;1.35;;;1.25;;
30697;SDS011;17448;47.200;10.902;2024-03-23T02:44:34;2.55;;;1.42;;
30697;SDS011;17448;47.200;10.902;2024-03-23T02:47:00;2.28;;;1.30;;
30697;SDS011;17448;47.200;10.902;2024-03-23T02:49:27;3.47;;;1.30;;
30697;SDS011;17448;47.200;10.902;2024-03-23T02:51:53;3.63;;;1.58;;
30697;SDS011;17448;47.200;10.902;2024-03-23T02:54:20;6.10;;;1.52;;
30697;SDS011;17448;47.200;10.902;2024-03-23T02:56:46;5.35;;;1.15;;
30697;SDS011;17448;47.200;10.902;2024-03-23T02:59:12;2.10;;;1.13;;
30697;SDS011;17448;47.200;10.902;2024-03-23T03:01:38;2.85;;;1.40;;
30697;SDS011;17448;47.200;10.902;2024-03-23T03:04:05;1.48;;;1.30;;
30697;SDS011;17448;47.200;10.902;2024-03-23T03:06:31;1.85;;;1.30;;
30697;SDS011;17448;47.200;10.902;2024-03-23T03:08:57;1.60;;;1.13;;
30697;SDS011;17448;47.200;10.902;2024-03-23T03:11:23;1.02;;;0.93;;
30697;SDS011;17448;47.200;10.902;2024-03-23T03:13:50;2.65;;;1.30;;
30697;SDS011;17448;47.200;10.902;2024-03-23T03:16:16;3.65;;;1.27;;
30697;SDS011;17448;47.200;10.902;2024-03-23T03:18:42;1.40;;;1.10;;
30697;SDS011;17448;47.200;10.902;2024-03-23T03:21:11;6.07;;;1.60;;
30697;SDS011;17448;47.200;10.902;2024-03-23T03:23:38;4.97;;;1.85;;
30697;SDS011;17448;47.200;10.902;2024-03-23T03:26:04;2.22;;;1.30;;
30697;SDS011;17448;47.200;10.902;2024-03-23T03:28:34;2.20;;;1.30;;
30697;SDS011;17448;47.200;10.902;2024-03-23T03:31:00;1.67;;;1.40;;
30697;SDS011;17448;47.200;10.902;2024-03-23T03:33:27;2.38;;;1.30;;
30697;SDS011;17448;47.200;10.902;2024-03-23T03:35:53;2.70;;;1.58;;
30697;SDS011;17448;47.200;10.902;2024-03-23T03:38:20;3.00;;;1.58;;
30697;SDS011;17448;47.200;10.902;2024-03-23T03:40:46;2.35;;;1.20;;
30697;SDS011;17448;47.200;10.902;2024-03-23T03:43:12;1.52;;;1.13;;
30697;SDS011;17448;47.200;10.902;2024-03-23T03:45:39;1.50;;;1.17;;
30697;SDS011;17448;47.200;10.902;2024-03-23T03:48:05;3.47;;;1.40;;
30697;SDS011;17448;47.200;10.902;2024-03-23T03:50:32;2.15;;;1.17;;
30697;SDS011;17448;47.200;10.902;2024-03-23T03:52:58;3.75;;;1.17;;
30697;SDS011;17448;47.200;10.902;2024-03-23T03:55:24;3.47;;;1.35;;
30697;SDS011;17448;47.200;10.902;2024-03-23T03:57:51;1.92;;;1.40;;
30697;SDS011;17448;47.200;10.902;2024-03-23T04:00:17;2.33;;;1.48;;
30697;SDS011;17448;47.200;10.902;2024-03-23T04:02:43;4.53;;;1.42;;
30697;SDS011;17448;47.200;10.902;2024-03-23T04:05:10;2.45;;;1.30;;
30697;SDS011;17448;47.200;10.902;2024-03-23T04:07:36;4.03;;;1.33;;
30697;SDS011;17448;47.200;10.902;2024-03-23T04:10:02;2.90;;;1.20;;
30697;SDS011;17448;47.200;10.902;2024-03-23T04:12:32;2.22;;;1.30;;
30697;SDS011;17448;47.200;10.902;2024-03-23T04:14:58;5.20;;;1.40;;
30697;SDS011;17448;47.200;10.902;2024-03-23T04:17:25;1.83;;;1.20;;
30697;SDS011;17448;47.200;10.902;2024-03-23T04:19:54;1.95;;;1.10;;
30697;SDS011;17448;47.200;10.902;2024-03-23T04:22:22;2.90;;;1.17;;
30697;SDS011;17448;47.200;10.902;2024-03-23T04:24:49;2.42;;;1.45;;
30697;SDS011;17448;47.200;10.902;2024-03-23T04:27:16;1.40;;;1.30;;
30697;SDS011;17448;47.200;10.902;2024-03-23T04:29:42;3.00;;;1.42;;
30697;SDS011;17448;47.200;10.902;2024-03-23T04:32:13;3.45;;;1.40;;
30697;SDS011;17448;47.200;10.902;2024-03-23T04:34:39;1.67;;;1.30;;
30697;SDS011;17448;47.200;10.902;2024-03-23T04:37:05;3.03;;;1.40;;
30697;SDS011;17448;47.200;10.902;2024-03-23T04:39:32;1.33;;;1.00;;
30697;SDS011;17448;47.200;10.902;2024-03-23T04:41:59;3.25;;;1.35;;
30697;SDS011;17448;47.200;10.902;2024-03-23T04:44:27;1.63;;;1.20;;
30697;SDS011;17448;47.200;10.902;2024-03-23T04:47:02;2.88;;;0.93;;
30697;SDS011;17448;47.200;10.902;2024-03-23T04:49:32;1.75;;;1.10;;
30697;SDS011;17448;47.200;10.902;2024-03-23T04:51:59;2.65;;;1.38;;
30697;SDS011;17448;47.200;10.902;2024-03-23T04:54:26;3.33;;;1.10;;
30697;SDS011;17448;47.200;10.902;2024-03-23T04:56:55;1.63;;;1.30;;
30697;SDS011;17448;47.200;10.902;2024-03-23T04:59:21;1.05;;;0.90;;
30697;SDS011;17448;47.200;10.902;2024-03-23T05:01:47;2.60;;;1.50;;
30697;SDS011;17448;47.200;10.902;2024-03-23T05:04:15;2.53;;;1.52;;
30697;SDS011;17448;47.200;10.902;2024-03-23T05:06:41;2.75;;;1.40;;
30697;SDS011;17448;47.200;10.902;2024-03-23T05:09:08;1.98;;;1.25;;
30697;SDS011;17448;47.200;10.902;2024-03-23T05:11:40;1.70;;;1.33;;
30697;SDS011;17448;47.200;10.902;2024-03-23T05:14:10;2.35;;;1.40;;
30697;SDS011;17448;47.200;10.902;2024-03-23T05:16:36;1.30;;;1.20;;
30697;SDS011;17448;47.200;10.902;2024-03-23T05:19:03;1.50;;;1.30;;
30697;SDS011;17448;47.200;10.902;2024-03-23T05:21:29;1.38;;;1.27;;
30697;SDS011;17448;47.200;10.902;2024-03-23T05:23:55;2.78;;;1.45;;
30697;SDS011;17448;47.200;10.902;2024-03-23T05:26:22;1.58;;;1.40;;
30697;SDS011;17448;47.200;10.902;2024-03-23T05:28:48;1.55;;;1.13;;
30697;SDS011;17448;47.200;10.902;2024-03-23T05:31:24;2.47;;;1.63;;
30697;SDS011;17448;47.200;10.902;2024-03-23T05:33:50;3.08;;;1.10;;
30697;SDS011;17448;47.200;10.902;2024-03-23T05:36:17;1.65;;;1.23;;
30697;SDS011;17448;47.200;10.902;2024-03-23T05:38:43;3.70;;;1.42;;
30697;SDS011;17448;47.200;10.902;2024-03-23T05:41:10;2.45;;;1.48;;
30697;SDS011;17448;47.200;10.902;2024-03-23T05:43:36;4.15;;;1.58;;
30697;SDS011;17448;47.200;10.902;2024-03-23T05:46:02;5.38;;;2.75;;
30697;SDS011;17448;47.200;10.902;2024-03-23T05:48:30;5.75;;;2.28;;
30697;SDS011;17448;47.200;10.902;2024-03-23T05:50:56;4.10;;;2.05;;
30697;SDS011;17448;47.200;10.902;2024-03-23T05:53:23;3.67;;;1.98;;
30697;SDS011;17448;47.200;10.902;2024-03-23T05:55:50;1.58;;;1.20;;
30697;SDS011;17448;47.200;10.902;2024-03-23T05:58:16;4.20;;;1.60;;
30697;SDS011;17448;47.200;10.902;2024-03-23T06:00:44;3.00;;;1.70;;
30697;SDS011;17448;47.200;10.902;2024-03-23T06:03:10;4.13;;;1.80;;
30697;SDS011;17448;47.200;10.902;2024-03-23T06:05:37;2.38;;;1.50;;
30697;SDS011;17448;47.200;10.902;2024-03-23T06:08:03;2.70;;;1.60;;
30697;SDS011;17448;47.200;10.902;2024-03-23T06:10:31;2.00;;;1.50;;
30697;SDS011;17448;47.200;10.902;2024-03-23T06:12:58;3.95;;;1.65;;
30697;SDS011;17448;47.200;10.902;2024-03-23T06:15:24;4.68;;;1.60;;
30697;SDS011;17448;47.200;10.902;2024-03-23T06:17:52;2.45;;;1.25;;
30697;SDS011;17448;47.200;10.902;2024-03-23T06:20:18;2.63;;;1.70;;
30697;SDS011;17448;47.200;10.902;2024-03-23T06:22:45;2.20;;;1.50;;
30697;SDS011;17448;47.200;10.902;2024-03-23T06:25:11;4.10;;;2.20;;
30697;SDS011;17448;47.200;10.902;2024-03-23T06:27:38;3.13;;;1.70;;
30697;SDS011;17448;47.200;10.902;2024-03-23T06:30:05;3.25;;;1.80;;
30697;SDS011;17448;47.200;10.902;2024-03-23T06:32:31;3.97;;;2.10;;
30697;SDS011;17448;47.200;10.902;2024-03-23T06:34:58;3.22;;;1.60;;
30697;SDS011;17448;47.200;10.902;2024-03-23T06:37:24;1.92;;;1.55;;
30697;SDS011;17448;47.200;10.902;2024-03-23T06:39:51;2.42;;;1.83;;
30697;SDS011;17448;47.200;10.902;2024-03-23T06:42:17;4.10;;;2.00;;
30697;SDS011;17448;47.200;10.902;2024-03-23T06:44:43;4.70;;;2.00;;
30697;SDS011;17448;47.200;10.902;2024-03-23T06:47:09;2.97;;;2.08;;
30697;SDS011;17448;47.200;10.902;2024-03-23T06:49:36;3.42;;;2.22;;
30697;SDS011;17448;47.200;10.902;2024-03-23T06:52:02;5.13;;;2.47;;
30697;SDS011;17448;47.200;10.902;2024-03-23T06:54:28;5.35;;;2.38;;
30697;SDS011;17448;47.200;10.902;2024-03-23T06:56:54;2.83;;;1.90;;
30697;SDS011;17448;47.200;10.902;2024-03-23T06:59:21;2.50;;;1.75;;
30697;SDS011;17448;47.200;10.902;2024-03-23T07:01:48;4.18;;;2.03;;
30697;SDS011;17448;47.200;10.902;2024-03-23T07:04:14;4.95;;;2.60;;
30697;SDS011;17448;47.200;10.902;2024-03-23T07:06:44;3.67;;;2.45;;
30697;SDS011;17448;47.200;10.902;2024-03-23T07:09:10;6.07;;;2.95;;
30697;SDS011;17448;47.200;10.902;2024-03-23T07:11:37;10.50;;;4.13;;
30697;SDS011;17448;47.200;10.902;2024-03-23T07:14:03;6.22;;;2.40;;
30697;SDS011;17448;47.200;10.902;2024-03-23T07:16:30;7.25;;;2.72;;
30697;SDS011;17448;47.200;10.902;2024-03-23T07:18:56;3.67;;;2.10;;
30697;SDS011;17448;47.200;10.902;2024-03-23T07:21:24;3.17;;;1.88;;
30697;SDS011;17448;47.200;10.902;2024-03-23T07:23:50;5.30;;;2.42;;
30697;SDS011;17448;47.200;10.902;2024-03-23T07:26:16;11.55;;;3.08;;
30697;SDS011;17448;47.200;10.902;2024-03-23T07:28:44;60.78;;;5.20;;
30697;SDS011;17448;47.200;10.902;2024-03-23T07:31:11;6.20;;;3.25;;
30697;SDS011;17448;47.200;10.902;2024-03-23T07:33:42;45.47;;;6.40;;
30697;SDS011;17448;47.200;10.902;2024-03-23T07:36:09;29.40;;;3.90;;
30697;SDS011;17448;47.200;10.902;2024-03-23T07:38:36;6.57;;;2.15;;
30697;SDS011;17448;47.200;10.902;2024-03-23T07:41:06;7.15;;;2.65;;
30697;SDS011;17448;47.200;10.902;2024-03-23T07:43:32;8.43;;;2.65;;
30697;SDS011;17448;47.200;10.902;2024-03-23T07:45:59;7.03;;;2.70;;
30697;SDS011;17448;47.200;10.902;2024-03-23T07:48:26;5.50;;;2.70;;
30697;SDS011;17448;47.200;10.902;2024-03-23T07:53:43;8.10;;;3.97;;
30697;SDS011;17448;47.200;10.902;2024-03-23T07:56:09;10.02;;;5.38;;
30697;SDS011;17448;47.200;10.902;2024-03-23T07:58:36;5.93;;;3.70;;
30697;SDS011;17448;47.200;10.902;2024-03-23T08:03:38;7.85;;;3.33;;
30697;SDS011;17448;47.200;10.902;2024-03-23T08:06:17;12.05;;;3.33;;
30697;SDS011;17448;47.200;10.902;2024-03-23T08:08:45;7.60;;;2.72;;
30697;SDS011;17448;47.200;10.902;2024-03-23T08:11:12;5.35;;;3.40;;
30697;SDS011;17448;47.200;10.902;2024-03-23T08:13:39;6.03;;;3.00;;
30697;SDS011;17448;47.200;10.902;2024-03-23T08:16:05;4.78;;;2.05;;
30697;SDS011;17448;47.200;10.902;2024-03-23T08:18:32;7.25;;;3.60;;
30697;SDS011;17448;47.200;10.902;2024-03-23T08:21:02;7.50;;;3.78;;
30697;SDS011;17448;47.200;10.902;2024-03-23T08:23:29;6.93;;;3.40;;
30697;SDS011;17448;47.200;10.902;2024-03-23T08:26:05;12.65;;;3.63;;
30697;SDS011;17448;47.200;10.902;2024-03-23T08:28:32;9.82;;;3.50;;
30697;SDS011;17448;47.200;10.902;2024-03-23T08:31:03;6.68;;;2.90;;
30697;SDS011;17448;47.200;10.902;2024-03-23T08:33:31;4.40;;;2.20;;
30697;SDS011;17448;47.200;10.902;2024-03-23T08:36:01;2.88;;;1.92;;
30697;SDS011;17448;47.200;10.902;2024-03-23T08:38:28;4.50;;;2.40;;
30697;SDS011;17448;47.200;10.902;2024-03-23T08:41:10;4.18;;;2.13;;
30697;SDS011;17448;47.200;10.902;2024-03-23T08:43:37;6.28;;;2.17;;
30697;SDS011;17448;47.200;10.902;2024-03-23T08:49:06;4.45;;;2.70;;
30697;SDS011;17448;47.200;10.902;2024-03-23T08:51:26;2.10;;;1.75;;
30697;SDS011;17448;47.200;10.902;2024-03-23T08:53:52;5.95;;;2.20;;
30697;SDS011;17448;47.200;10.902;2024-03-23T08:56:19;2.83;;;1.90;;
30697;SDS011;17448;47.200;10.902;2024-03-23T08:58:45;4.05;;;2.25;;
30697;SDS011;17448;47.200;10.902;2024-03-23T09:01:12;4.40;;;2.08;;
30697;SDS011;17448;47.200;10.902;2024-03-23T09:03:39;3.88;;;1.67;;
30697;SDS011;17448;47.200;10.902;2024-03-23T09:06:09;2.17;;;1.55;;
30697;SDS011;17448;47.200;10.902;2024-03-23T09:08:36;2.78;;;1.70;;
30697;SDS011;17448;47.200;10.902;2024-03-23T09:11:03;16.13;;;4.30;;
30697;SDS011;17448;47.200;10.902;2024-03-23T09:13:33;5.32;;;1.98;;
30697;SDS011;17448;47.200;10.902;2024-03-23T09:16:00;2.55;;;1.63;;
30697;SDS011;17448;47.200;10.902;2024-03-23T09:18:26;3.42;;;1.50;;
30697;SDS011;17448;47.200;10.902;2024-03-23T09:20:52;3.63;;;1.20;;
30697;SDS011;17448;47.200;10.902;2024-03-23T09:23:22;2.63;;;1.75;;
30697;SDS011;17448;47.200;10.902;2024-03-23T09:25:48;4.38;;;1.98;;
30697;SDS011;17448;47.200;10.902;2024-03-23T09:28:15;3.90;;;1.95;;
30697;SDS011;17448;47.200;10.902;2024-03-23T09:30:41;5.07;;;1.92;;
30697;SDS011;17448;47.200;10.902;2024-03-23T09:33:08;2.08;;;1.70;;
30697;SDS011;17448;47.200;10.902;2024-03-23T09:35:39;2.65;;;2.00;;
30697;SDS011;17448;47.200;10.902;2024-03-23T09:38:05;6.32;;;2.10;;
30697;SDS011;17448;47.200;10.902;2024-03-23T09:40:35;6.15;;;2.25;;
30697;SDS011;17448;47.200;10.902;2024-03-23T09:43:07;4.32;;;1.88;;
30697;SDS011;17448;47.200;10.902;2024-03-23T09:45:35;4.93;;;1.80;;
30697;SDS011;17448;47.200;10.902;2024-03-23T09:48:02;2.80;;;1.60;;
30697;SDS011;17448;47.200;10.902;2024-03-23T09:50:29;5.57;;;2.20;;
30697;SDS011;17448;47.200;10.902;2024-03-23T09:52:56;2.45;;;1.63;;
30697;SDS011;17448;47.200;10.902;2024-03-23T09:55:22;3.15;;;1.92;;
30697;SDS011;17448;47.200;10.902;2024-03-23T09:57:49;1.95;;;1.67;;
30697;SDS011;17448;47.200;10.902;2024-03-23T10:00:16;4.63;;;1.88;;
30697;SDS011;17448;47.200;10.902;2024-03-23T10:02:42;3.95;;;1.77;;
30697;SDS011;17448;47.200;10.902;2024-03-23T10:05:21;3.30;;;1.95;;
30697;SDS011;17448;47.200;10.902;2024-03-23T10:07:52;3.33;;;1.95;;
30697;SDS011;17448;47.200;10.902;2024-03-23T10:10:19;3.55;;;1.60;;
30697;SDS011;17448;47.200;10.902;2024-03-23T10:12:47;3.65;;;1.90;;
30697;SDS011;17448;47.200;10.902;2024-03-23T10:15:23;4.85;;;2.05;;
30697;SDS011;17448;47.200;10.902;2024-03-23T10:17:50;3.28;;;1.63;;
30697;SDS011;17448;47.200;10.902;2024-03-23T10:20:20;3.83;;;2.05;;
30697;SDS011;17448;47.200;10.902;2024-03-23T10:22:48;3.30;;;1.95;;
30697;SDS011;17448;47.200;10.902;2024-03-23T10:25:15;5.57;;;2.50;;
30697;SDS011;17448;47.200;10.902;2024-03-23T10:27:42;3.95;;;2.20;;
30697;SDS011;17448;47.200;10.902;2024-03-23T10:30:12;2.83;;;1.90;;
30697;SDS011;17448;47.200;10.902;2024-03-23T10:32:43;5.07;;;2.17;;
30697;SDS011;17448;47.200;10.902;2024-03-23T10:35:22;4.18;;;2.40;;
30697;SDS011;17448;47.200;10.902;2024-03-23T10:37:52;5.95;;;2.67;;
30697;SDS011;17448;47.200;10.902;2024-03-23T10:40:23;6.20;;;2.50;;
30697;SDS011;17448;47.200;10.902;2024-03-23T10:42:49;4.68;;;2.40;;
30697;SDS011;17448;47.200;10.902;2024-03-23T10:45:17;4.32;;;2.28;;
30697;SDS011;17448;47.200;10.902;2024-03-23T10:47:44;4.32;;;2.65;;
30697;SDS011;17448;47.200;10.902;2024-03-23T10:50:11;3.00;;;2.35;;
30697;SDS011;17448;47.200;10.902;2024-03-23T10:52:38;5.55;;;1.77;;
30697;SDS011;17448;47.200;10.902;2024-03-23T10:55:06;3.72;;;1.98;;
30697;SDS011;17448;47.200;10.902;2024-03-23T10:57:38;5.50;;;1.80;;
30697;SDS011;17448;47.200;10.902;2024-03-23T11:00:07;5.25;;;1.85;;
30697;SDS011;17448;47.200;10.902;2024-03-23T11:02:35;1.67;;;1.10;;
30697;SDS011;17448;47.200;10.902;2024-03-23T11:05:07;1.70;;;1.10;;
30697;SDS011;17448;47.200;10.902;2024-03-23T11:07:52;1.33;;;1.05;;
30697;SDS011;17448;47.200;10.902;2024-03-23T11:10:29;1.55;;;1.35;;
30697;SDS011;17448;47.200;10.902;2024-03-23T11:12:56;1.85;;;1.17;;
30697;SDS011;17448;47.200;10.902;2024-03-23T11:15:27;3.10;;;1.33;;
30697;SDS011;17448;47.200;10.902;2024-03-23T11:18:04;1.80;;;1.27;;
30697;SDS011;17448;47.200;10.902;2024-03-23T11:20:31;1.83;;;1.40;;
30697;SDS011;17448;47.200;10.902;2024-03-23T11:22:58;2.75;;;1.17;;
30697;SDS011;17448;47.200;10.902;2024-03-23T11:25:26;1.95;;;1.58;;
30697;SDS011;17448;47.200;10.902;2024-03-23T11:27:53;1.45;;;1.17;;
30697;SDS011;17448;47.200;10.902;2024-03-23T11:30:25;1.42;;;0.85;;
30697;SDS011;17448;47.200;10.902;2024-03-23T11:32:53;2.95;;;1.08;;
30697;SDS011;17448;47.200;10.902;2024-03-23T11:35:29;1.88;;;0.90;;
30697;SDS011;17448;47.200;10.902;2024-03-23T11:40:33;1.02;;;0.70;;
30697;SDS011;17448;47.200;10.902;2024-03-23T11:43:04;2.70;;;1.20;;
30697;SDS011;17448;47.200;10.902;2024-03-23T11:45:42;1.33;;;0.95;;
30697;SDS011;17448;47.200;10.902;2024-03-23T11:48:10;1.23;;;1.02;;
30697;SDS011;17448;47.200;10.902;2024-03-23T11:50:41;1.38;;;0.80;;
30697;SDS011;17448;47.200;10.902;2024-03-23T11:53:23;2.78;;;1.23;;
30697;SDS011;17448;47.200;10.902;2024-03-23T11:55:54;5.03;;;2.58;;
30697;SDS011;17448;47.200;10.902;2024-03-23T11:58:25;6.15;;;2.30;;
30697;SDS011;17448;47.200;10.902;2024-03-23T12:00:58;1.38;;;1.00;;
30697;SDS011;17448;47.200;10.902;2024-03-23T12:03:24;0.75;;;0.75;;
30697;SDS011;17448;47.200;10.902;2024-03-23T12:06:19;2.40;;;1.25;;
30697;SDS011;17448;47.200;10.902;2024-03-23T12:08:43;3.95;;;1.10;;
30697;SDS011;17448;47.200;10.902;2024-03-23T12:11:17;1.20;;;1.10;;
30697;SDS011;17448;47.200;10.902;2024-03-23T12:13:44;1.65;;;1.55;;
30697;SDS011;17448;47.200;10.902;2024-03-23T12:16:19;0.82;;;0.82;;
30697;SDS011;17448;47.200;10.902;2024-03-23T12:22:00;4.15;;;1.00;;
30697;SDS011;17448;47.200;10.902;2024-03-23T12:24:29;3.42;;;0.90;;
30697;SDS011;17448;47.200;10.902;2024-03-23T12:27:00;1.05;;;0.90;;
30697;SDS011;17448;47.200;10.902;2024-03-23T12:29:29;1.02;;;0.80;;
30697;SDS011;17448;47.200;10.902;2024-03-23T12:31:59;0.50;;;0.50;;
30697;SDS011;17448;47.200;10.902;2024-03-23T12:34:26;0.73;;;0.60;;
30697;SDS011;17448;47.200;10.902;2024-03-23T12:36:53;0.70;;;0.70;;
30697;SDS011;17448;47.200;10.902;2024-03-23T12:39:19;1.20;;;0.60;;
30697;SDS011;17448;47.200;10.902;2024-03-23T12:41:46;4.15;;;0.73;;
30697;SDS011;17448;47.200;10.902;2024-03-23T12:44:13;2.03;;;0.68;;
30697;SDS011;17448;47.200;10.902;2024-03-23T12:46:43;1.55;;;0.90;;
30697;SDS011;17448;47.200;10.902;2024-03-23T12:49:10;0.93;;;0.73;;
30697;SDS011;17448;47.200;10.902;2024-03-23T12:51:36;1.20;;;1.10;;
30697;SDS011;17448;47.200;10.902;2024-03-23T12:54:03;1.00;;;1.00;;
30697;SDS011;17448;47.200;10.902;2024-03-23T12:56:30;0.50;;;0.50;;
30697;SDS011;17448;47.200;10.902;2024-03-23T12:58:56;5.47;;;1.33;;
30697;SDS011;17448;47.200;10.902;2024-03-23T13:01:23;1.55;;;0.88;;
30697;SDS011;17448;47.200;10.902;2024-03-23T13:03:50;14.95;;;8.38;;
30697;SDS011;17448;47.200;10.902;2024-03-23T13:06:17;8.38;;;7.35;;
30697;SDS011;17448;47.200;10.902;2024-03-23T13:08:44;12.98;;;10.40;;
30697;SDS011;17448;47.200;10.902;2024-03-23T13:11:11;9.90;;;6.95;;
30697;SDS011;17448;47.200;10.902;2024-03-23T13:13:40;4.10;;;2.75;;
30697;SDS011;17448;47.200;10.902;2024-03-23T13:16:07;0.80;;;0.80;;
30697;SDS011;17448;47.200;10.902;2024-03-23T13:18:34;0.75;;;0.70;;
30697;SDS011;17448;47.200;10.902;2024-03-23T13:21:01;0.63;;;0.63;;
30697;SDS011;17448;47.200;10.902;2024-03-23T13:23:28;0.60;;;0.60;;
30697;SDS011;17448;47.200;10.902;2024-03-23T13:26:00;3.70;;;1.17;;
30697;SDS011;17448;47.200;10.902;2024-03-23T13:31:07;5.13;;;4.63;;
30697;SDS011;17448;47.200;10.902;2024-03-23T13:33:34;5.00;;;4.57;;
30697;SDS011;17448;47.200;10.902;2024-03-23T13:36:00;3.50;;;2.30;;
30697;SDS011;17448;47.200;10.902;2024-03-23T13:38:29;1.05;;;1.00;;
30697;SDS011;17448;47.200;10.902;2024-03-23T13:40:57;1.00;;;0.77;;
30697;SDS011;17448;47.200;10.902;2024-03-23T13:43:26;3.22;;;1.02;;
30697;SDS011;17448;47.200;10.902;2024-03-23T13:46:04;0.60;;;0.60;;
30697;SDS011;17448;47.200;10.902;2024-03-23T13:48:59;0.40;;;0.40;;
30697;SDS011;17448;47.200;10.902;2024-03-23T13:51:26;2.20;;;0.80;;
30697;SDS011;17448;47.200;10.902;2024-03-23T13:53:57;1.35;;;1.10;;
30697;SDS011;17448;47.200;10.902;2024-03-23T13:56:33;4.40;;;1.50;;
30697;SDS011;17448;47.200;10.902;2024-03-23T14:01:41;2.78;;;1.30;;
30697;SDS011;17448;47.200;10.902;2024-03-23T14:04:08;2.47;;;1.25;;
30697;SDS011;17448;47.200;10.902;2024-03-23T14:06:47;1.48;;;1.38;;
30697;SDS011;17448;47.200;10.902;2024-03-23T14:09:27;1.40;;;1.02;;
30697;SDS011;17448;47.200;10.902;2024-03-23T14:17:25;2.67;;;0.98;;
30697;SDS011;17448;47.200;10.902;2024-03-23T14:19:59;1.25;;;1.00;;
30697;SDS011;17448;47.200;10.902;2024-03-23T14:22:32;1.42;;;1.10;;
30697;SDS011;17448;47.200;10.902;2024-03-23T14:25:09;2.38;;;1.45;;
30697;SDS011;17448;47.200;10.902;2024-03-23T14:27:44;2.28;;;1.40;;
30697;SDS011;17448;47.200;10.902;2024-03-23T14:30:14;1.50;;;1.40;;
30697;SDS011;17448;47.200;10.902;2024-03-23T14:32:47;2.25;;;1.40;;
30697;SDS011;17448;47.200;10.902;2024-03-23T14:35:17;1.33;;;1.13;;
30697;SDS011;17448;47.200;10.902;2024-03-23T14:37:49;4.28;;;1.27;;
30697;SDS011;17448;47.200;10.902;2024-03-23T14:40:21;2.67;;;1.30;;
30697;SDS011;17448;47.200;10.902;2024-03-23T14:42:55;2.17;;;1.50;;
30697;SDS011;17448;47.200;10.902;2024-03-23T14:45:22;2.47;;;1.60;;
30697;SDS011;17448;47.200;10.902;2024-03-23T14:47:50;1.85;;;1.50;;
30697;SDS011;17448;47.200;10.902;2024-03-23T14:50:24;2.60;;;1.75;;
30697;SDS011;17448;47.200;10.902;2024-03-23T14:52:54;3.22;;;1.35;;
30697;SDS011;17448;47.200;10.902;2024-03-23T14:55:26;0.80;;;0.80;;
30697;SDS011;17448;47.200;10.902;2024-03-23T15:05:06;1.83;;;1.40;;
30697;SDS011;17448;47.200;10.902;2024-03-23T15:07:36;1.63;;;0.98;;
30697;SDS011;17448;47.200;10.902;2024-03-23T15:10:05;2.60;;;1.23;;
30697;SDS011;17448;47.200;10.902;2024-03-23T15:12:33;1.83;;;1.10;;
30697;SDS011;17448;47.200;10.902;2024-03-23T15:15:04;1.35;;;1.05;;
30697;SDS011;17448;47.200;10.902;2024-03-23T15:17:33;5.07;;;1.02;;
30697;SDS011;17448;47.200;10.902;2024-03-23T15:20:17;2.03;;;1.00;;
30697;SDS011;17448;47.200;10.902;2024-03-23T15:22:43;1.85;;;1.17;;
30697;SDS011;17448;47.200;10.902;2024-03-23T15:25:10;2.13;;;0.80;;
30697;SDS011;17448;47.200;10.902;2024-03-23T15:27:38;0.85;;;0.85;;
30697;SDS011;17448;47.200;10.902;2024-03-23T15:30:04;5.63;;;1.05;;
30697;SDS011;17448;47.200;10.902;2024-03-23T15:32:37;1.38;;;1.10;;
30697;SDS011;17448;47.200;10.902;2024-03-23T15:35:08;3.08;;;1.27;;
30697;SDS011;17448;47.200;10.902;2024-03-23T15:37:35;1.48;;;0.90;;
30697;SDS011;17448;47.200;10.902;2024-03-23T15:40:20;0.90;;;0.80;;
30697;SDS011;17448;47.200;10.902;2024-03-23T15:47:55;7.50;;;1.30;;
30697;SDS011;17448;47.200;10.902;2024-03-23T15:50:50;3.50;;;0.90;;
30697;SDS011;17448;47.200;10.902;2024-03-23T15:53:18;1.45;;;0.90;;
30697;SDS011;17448;47.200;10.902;2024-03-23T15:55:46;2.38;;;0.90;;
30697;SDS011;17448;47.200;10.902;2024-03-23T15:58:19;1.17;;;1.00;;
30697;SDS011;17448;47.200;10.902;2024-03-23T16:04:01;1.52;;;0.90;;
30697;SDS011;17448;47.200;10.902;2024-03-23T16:06:28;1.40;;;1.30;;
30697;SDS011;17448;47.200;10.902;2024-03-23T16:08:54;1.50;;;1.38;;
30697;SDS011;17448;47.200;10.902;2024-03-23T16:11:21;1.98;;;1.27;;
30697;SDS011;17448;47.200;10.902;2024-03-23T16:16:37;1.58;;;1.13;;
30697;SDS011;17448;47.200;10.902;2024-03-23T16:22:15;1.77;;;1.35;;